Terminal Aerodrome Forecast
Issued by NWS

Home | Current Version | Previous Version | Text Only | Print | Product List | Glossary On
Versions: 1 2 3 4 5 6 7 8 9 10 11 12 13 14 15 16 17 18 19 20 21 22 23 24 25 26 27 28 29 30
166
FTUS45 KGJT 231745
TAFTEX
TAF
KTEX 231745Z 2318/2418 27004KT P6SM VCTS BKN080CB
      TEMPO 2318/2321 VRB10G18KT 5SM -TSRA BKN040CB OVC060
     FM232100 27005KT P6SM VCTS BKN070CB
      TEMPO 2321/2401 VRB10G18KT 4SM TSRA OVC040CB
     FM240200 21004KT P6SM VCTS BKN050CB
     FM240900 VRB03KT P6SM BKN050
     FM241200 VRB03KT P6SM SCT050
     FM241600 35005KT P6SM VCTS SCT100CB=

USA.gov is the U.S. government's official web portal to all federal, state and local government web resources and services.